Time;durP1;ratioP1;P1;durP2;ratioP2;P2;SDS_P1;SDS_P2;PMS_P1;PMS_P2;Temp;Humidity;BMP_temperature;BMP_pressure;BME280_temperature;BME280_humidity;BME280_pressure;Samples;Min_cycle;Max_cycle;Signal;HPM_P1;HPM_P2
2022/11/15 00:01:36;;;;;;;5.57;0.80;;;24.20;99.90;;;;;;5025502;28;20190;-79
2022/11/15 00:04:07;;;;;;;7.88;1.42;;;23.80;99.90;;;;;;5028351;28;20234;-77
2022/11/15 00:06:38;;;;;;;3.05;1.17;;;23.20;99.90;;;;;;5031203;28;20289;-76
2022/11/15 00:09:12;;;;;;;4.22;1.27;;;23.00;99.90;;;;;;5030503;28;20281;-78
2022/11/15 00:11:43;;;;;;;6.30;1.10;;;22.80;99.90;;;;;;5029223;28;20206;-77
2022/11/15 00:14:16;;;;;;;7.57;1.20;;;22.60;99.90;;;;;;5028391;28;20198;-77
2022/11/15 00:16:46;;;;;;;5.72;1.10;;;22.60;99.90;;;;;;5030540;28;20647;-78
2022/11/15 00:19:18;;;;;;;4.60;1.10;;;22.70;99.90;;;;;;5028440;28;20281;-79
2022/11/15 00:21:49;;;;;;;4.47;1.00;;;23.10;99.90;;;;;;5025266;28;20282;-78
2022/11/15 00:24:19;;;;;;;4.25;1.05;;;23.20;99.90;;;;;;5026385;28;20707;-79
2022/11/15 00:26:50;;;;;;;7.63;1.30;;;23.10;99.90;;;;;;5031165;28;20204;-76
2022/11/15 00:29:26;;;;;;;4.63;0.93;;;23.00;99.90;;;;;;5027879;28;20216;-79
2022/11/15 00:31:57;;;;;;;6.43;1.20;;;22.80;99.90;;;;;;5021247;28;20218;-79
2022/11/15 00:34:31;;;;;;;4.82;0.80;;;22.80;99.90;;;;;;5027754;28;20203;-79
2022/11/15 00:37:02;;;;;;;2.72;0.80;;;22.70;99.90;;;;;;5029935;28;20238;-78
2022/11/15 00:39:33;;;;;;;4.07;1.02;;;22.60;99.90;;;;;;5034449;28;20202;-79
2022/11/15 00:42:03;;;;;;;2.50;0.93;;;22.60;99.90;;;;;;5034318;28;20194;-79
2022/11/15 00:44:36;;;;;;;6.22;1.35;;;22.50;99.90;;;;;;5030974;28;20231;-79
2022/11/15 00:47:07;;;;;;;5.70;1.05;;;22.40;99.90;;;;;;5034122;28;20198;-81
2022/11/15 00:49:37;;;;;;;5.88;1.27;;;22.30;99.90;;;;;;5032145;28;20654;-80
2022/11/15 00:52:08;;;;;;;6.43;1.35;;;22.30;99.90;;;;;;5031148;28;20685;-81
2022/11/15 00:54:40;;;;;;;7.68;1.40;;;22.30;99.90;;;;;;5030669;28;20566;-80
2022/11/15 00:57:10;;;;;;;5.18;1.10;;;22.10;99.90;;;;;;5030535;28;20210;-79
2022/11/15 00:59:43;;;;;;;9.05;1.23;;;22.00;99.90;;;;;;5034604;28;20190;-79
2022/11/15 01:02:14;;;;;;;6.07;1.33;;;21.90;99.90;;;;;;5033654;28;20657;-78
2022/11/15 01:04:44;;;;;;;6.93;1.30;;;21.90;99.90;;;;;;5032329;28;20601;-80
2022/11/15 01:07:15;;;;;;;8.93;1.48;;;22.10;99.90;;;;;;5032563;28;20209;-80
2022/11/15 01:09:46;;;;;;;4.93;1.20;;;22.20;99.90;;;;;;5037140;28;20194;-80
2022/11/15 01:12:17;;;;;;;3.38;1.10;;;22.60;99.90;;;;;;5031466;28;20198;-81
2022/11/15 01:14:49;;;;;;;2.97;1.02;;;22.90;99.90;;;;;;5031023;28;20201;-80
2022/11/15 01:17:21;;;;;;;4.57;1.05;;;23.00;99.90;;;;;;5033982;28;20222;-80
2022/11/15 01:19:52;;;;;;;7.78;1.20;;;23.00;99.90;;;;;;5028837;28;20263;-81
2022/11/15 01:22:23;;;;;;;4.97;1.13;;;23.00;99.90;;;;;;5026990;28;20214;-81
2022/11/15 01:24:54;;;;;;;4.05;1.00;;;22.90;99.90;;;;;;5032950;28;20217;-81
2022/11/15 01:27:24;;;;;;;6.63;1.10;;;22.90;99.90;;;;;;5033772;28;20209;-80
2022/11/15 01:29:57;;;;;;;6.35;1.42;;;23.20;99.90;;;;;;5029726;28;20277;-80
2022/11/15 01:32:28;;;;;;;6.35;1.23;;;23.60;99.90;;;;;;5025887;28;20203;-81
2022/11/15 01:34:59;;;;;;;8.82;1.10;;;23.70;99.90;;;;;;5032778;28;20209;-80
2022/11/15 01:37:29;;;;;;;6.88;1.17;;;23.60;99.90;;;;;;5030029;28;20253;-80
2022/11/15 01:40:00;;;;;;;4.07;1.17;;;23.70;99.90;;;;;;5028216;28;20666;-79
2022/11/15 01:42:31;;;;;;;4.28;1.63;;;23.60;99.90;;;;;;5031060;28;20198;-79
2022/11/15 01:45:03;;;;;;;4.45;1.10;;;23.60;99.90;;;;;;5032416;28;20234;-81
2022/11/15 01:47:37;;;;;;;11.70;5.45;;;23.50;99.90;;;;;;5030780;28;20209;-81
2022/11/15 01:50:12;;;;;;;7.88;1.33;;;23.50;99.90;;;;;;5028212;28;20639;-80
2022/11/15 01:52:44;;;;;;;7.03;1.15;;;23.60;99.90;;;;;;5026913;28;22071;-79
2022/11/15 01:55:20;;;;;;;5.78;1.10;;;23.60;99.90;;;;;;5018862;28;20205;-77
2022/11/15 01:57:56;;;;;;;4.22;0.90;;;23.40;99.90;;;;;;5032148;28;20210;-81
2022/11/15 02:00:29;;;;;;;3.40;1.05;;;23.20;99.90;;;;;;5032657;28;20251;-79
2022/11/15 02:02:59;;;;;;;5.13;1.23;;;23.00;99.90;;;;;;5028270;28;20194;-80
2022/11/15 02:05:31;;;;;;;4.55;1.15;;;23.00;99.90;;;;;;5029195;28;20198;-79
2022/11/15 02:08:03;;;;;;;4.90;1.50;;;23.20;99.90;;;;;;5031575;28;20545;-79
2022/11/15 02:10:34;;;;;;;4.40;1.08;;;23.30;99.90;;;;;;5027569;28;20217;-83
2022/11/15 02:13:06;;;;;;;3.30;1.05;;;23.30;99.90;;;;;;5041621;28;20281;-80
2022/11/15 02:15:45;;;;;;;3.80;1.30;;;23.20;99.90;;;;;;5033575;28;20208;-82
2022/11/15 02:18:23;;;;;;;4.45;1.05;;;23.20;99.90;;;;;;5023973;28;20703;-80
2022/11/15 02:21:13;;;;;;;3.72;1.02;;;23.20;99.90;;;;;;5034297;28;20248;-79
2022/11/15 02:24:13;;;;;;;6.68;1.25;;;23.10;99.90;;;;;;5025122;28;20605;-79
2022/11/15 02:27:19;;;;;;;4.82;1.00;;;22.80;99.90;;;;;;5025686;28;20288;-79
2022/11/15 02:30:06;;;;;;;7.32;1.10;;;22.80;99.90;;;;;;5027898;28;20236;-81
2022/11/15 02:32:46;;;;;;;5.88;1.00;;;23.10;99.90;;;;;;5022980;28;20293;-80
2022/11/15 02:35:25;;;;;;;6.40;1.20;;;23.30;99.90;;;;;;5020663;28;20285;-79
2022/11/15 02:38:01;;;;;;;3.30;0.85;;;23.30;99.90;;;;;;5031065;28;20297;-80
2022/11/15 02:40:40;;;;;;;6.80;1.42;;;23.30;99.90;;;;;;5028728;28;20205;-80
2022/11/15 02:46:06;;;;;;;4.38;1.00;;;23.60;99.90;;;;;;5030225;28;20297;-80
2022/11/15 02:48:40;;;;;;;9.57;1.48;;;23.40;99.90;;;;;;5031459;28;20259;-77
2022/11/15 02:51:11;;;;;;;11.85;1.73;;;23.20;99.90;;;;;;5031047;28;20281;-78
2022/11/15 02:53:42;;;;;;;3.95;1.33;;;23.10;99.90;;;;;;5024534;28;20195;-79
2022/11/15 02:56:14;;;;;;;5.80;1.33;;;22.90;99.90;;;;;;5030918;28;20590;-77
2022/11/15 02:59:23;;;;;;;10.65;1.60;;;22.90;99.90;;;;;;5028431;28;20218;-77
2022/11/15 03:02:06;;;;;;;9.02;1.33;;;22.80;99.90;;;;;;4996147;28;20292;-78
2022/11/15 03:04:46;;;;;;;5.78;1.10;;;22.80;99.90;;;;;;5027108;28;20713;-79
2022/11/15 03:07:25;;;;;;;6.22;1.15;;;22.80;99.90;;;;;;5023874;28;20208;-77
2022/11/15 03:10:02;;;;;;;7.60;1.20;;;22.80;99.90;;;;;;5024514;28;20194;-79
2022/11/15 03:12:39;;;;;;;8.50;1.52;;;22.90;99.90;;;;;;5024444;28;20281;-78
2022/11/15 03:15:13;;;;;;;7.75;1.23;;;22.90;99.90;;;;;;5026935;28;20281;-79
2022/11/15 03:17:50;;;;;;;7.72;1.30;;;23.10;99.90;;;;;;5028848;28;20213;-80
2022/11/15 03:20:23;;;;;;;5.85;1.15;;;23.00;99.90;;;;;;5027814;28;20204;-78
2022/11/15 03:22:55;;;;;;;4.10;1.05;;;23.00;99.90;;;;;;5028591;28;20256;-77
2022/11/15 03:25:28;;;;;;;7.88;1.48;;;23.20;99.90;;;;;;5027308;28;20232;-79
2022/11/15 03:28:01;;;;;;;3.95;1.08;;;23.20;99.90;;;;;;5028401;28;20197;-78
2022/11/15 03:30:36;;;;;;;5.95;1.13;;;23.30;99.90;;;;;;5031956;28;20209;-77
2022/11/15 03:33:09;;;;;;;4.75;1.20;;;23.20;99.90;;;;;;5023529;28;20281;-77
2022/11/15 03:35:45;;;;;;;8.45;1.20;;;23.10;99.90;;;;;;5021882;28;20213;-78
2022/11/15 03:38:26;;;;;;;6.85;1.25;;;23.10;99.90;;;;;;5019045;28;20244;-78
2022/11/15 03:41:02;;;;;;;9.57;1.48;;;23.00;99.90;;;;;;5023802;28;20284;-79
2022/11/15 03:43:39;;;;;;;9.50;1.60;;;23.00;99.90;;;;;;5025417;28;20218;-78
2022/11/15 03:46:15;;;;;;;6.80;1.52;;;22.90;99.90;;;;;;5024781;28;20204;-77
2022/11/15 03:48:49;;;;;;;6.43;1.70;;;22.80;99.90;;;;;;5027339;28;20642;-80
2022/11/15 03:51:22;;;;;;;6.55;1.42;;;22.80;99.90;;;;;;5025164;28;20285;-77
2022/11/15 03:53:53;;;;;;;7.18;1.45;;;22.80;99.90;;;;;;5024122;28;20273;-77
2022/11/15 03:56:24;;;;;;;5.00;1.40;;;22.80;99.90;;;;;;5030181;28;20198;-78
2022/11/15 03:58:55;;;;;;;7.72;1.33;;;22.50;99.90;;;;;;5020002;28;20236;-78
2022/11/15 04:01:26;;;;;;;3.20;1.00;;;22.40;99.90;;;;;;5025427;28;20248;-78
2022/11/15 04:03:57;;;;;;;6.57;1.35;;;22.20;99.90;;;;;;5028849;28;20289;-78
2022/11/15 04:06:30;;;;;;;5.82;1.05;;;22.00;99.90;;;;;;5026993;28;20692;-77
2022/11/15 04:09:01;;;;;;;5.63;1.08;;;21.90;99.90;;;;;;5025716;28;20205;-77
2022/11/15 04:11:32;;;;;;;8.88;1.40;;;21.90;99.90;;;;;;5024311;28;20202;-79
2022/11/15 04:14:03;;;;;;;7.68;1.30;;;21.80;99.90;;;;;;5024346;28;20205;-80
2022/11/15 04:16:34;;;;;;;10.38;1.55;;;21.70;99.90;;;;;;5030226;28;20202;-78
2022/11/15 04:24:57;;;;;;;9.48;1.50;;;21.30;99.90;;;;;;5007147;28;20680;-76
2022/11/15 04:27:28;;;;;;;6.50;1.63;;;21.10;99.90;;;;;;5030530;28;20273;-79
2022/11/15 04:30:00;;;;;;;10.13;1.38;;;21.00;99.90;;;;;;5028614;28;20209;-79
2022/11/15 04:32:31;;;;;;;12.15;2.05;;;20.80;99.90;;;;;;5033919;28;20202;-80
2022/11/15 04:35:02;;;;;;;8.95;1.75;;;20.80;99.90;;;;;;5025244;28;20199;-77
2022/11/15 04:37:35;;;;;;;9.65;1.90;;;20.80;99.90;;;;;;5025531;28;20236;-81
2022/11/15 04:40:06;;;;;;;5.50;1.30;;;21.00;99.90;;;;;;5030118;28;20196;-79
2022/11/15 04:42:37;;;;;;;7.25;1.40;;;21.30;99.90;;;;;;5024926;28;20673;-78
2022/11/15 04:45:08;;;;;;;8.55;1.40;;;21.60;99.90;;;;;;5028838;28;20218;-80
2022/11/15 04:47:40;;;;;;;5.88;1.27;;;21.80;99.90;;;;;;5031365;28;20195;-79
2022/11/15 04:50:12;;;;;;;7.85;1.30;;;22.10;99.90;;;;;;5029154;28;20198;-79
2022/11/15 04:52:53;;;;;;;8.50;1.60;;;22.20;99.90;;;;;;5029825;28;20199;-80
2022/11/15 04:55:23;;;;;;;9.02;1.30;;;22.20;99.90;;;;;;5029427;28;20201;-79
2022/11/15 04:58:02;;;;;;;4.57;1.17;;;22.20;99.90;;;;;;5029815;28;20222;-80
2022/11/15 05:00:34;;;;;;;4.00;1.10;;;22.20;99.90;;;;;;5027282;28;21179;-81
2022/11/15 05:05:51;;;;;;;6.32;1.23;;;21.90;99.90;;;;;;5028647;28;20257;-79
2022/11/15 05:08:25;;;;;;;6.10;1.30;;;21.80;99.90;;;;;;5031319;28;20210;-78
2022/11/15 05:10:55;;;;;;;5.18;1.30;;;21.70;99.90;;;;;;5027942;28;20197;-79
2022/11/15 05:13:26;;;;;;;9.63;1.75;;;21.90;99.90;;;;;;5027784;28;20234;-78
2022/11/15 05:15:57;;;;;;;6.53;1.27;;;22.10;99.90;;;;;;5027931;28;20310;-77
2022/11/15 05:18:28;;;;;;;7.03;1.58;;;22.10;99.90;;;;;;5026625;28;20236;-78
2022/11/15 05:20:58;;;;;;;7.97;1.33;;;22.20;99.90;;;;;;5024069;28;20207;-78
2022/11/15 05:23:31;;;;;;;8.82;1.65;;;22.10;99.90;;;;;;5031698;28;20198;-78
2022/11/15 05:26:04;;;;;;;8.68;1.30;;;22.20;99.90;;;;;;5031494;28;20288;-78
2022/11/15 05:28:36;;;;;;;6.25;1.17;;;22.30;99.90;;;;;;5024147;28;20203;-78
2022/11/15 05:31:08;;;;;;;3.90;1.20;;;22.40;99.90;;;;;;5031465;28;20679;-81
2022/11/15 05:33:40;;;;;;;9.20;1.45;;;22.50;99.90;;;;;;5030326;28;20195;-77
2022/11/15 05:36:17;;;;;;;6.95;1.17;;;22.50;99.90;;;;;;5032769;28;20195;-78
2022/11/15 05:38:50;;;;;;;8.75;1.60;;;22.60;99.90;;;;;;5029555;28;20624;-82
2022/11/15 05:41:27;;;;;;;10.27;1.50;;;22.70;99.90;;;;;;5032681;28;20202;-81
2022/11/15 05:43:59;;;;;;;5.35;1.40;;;22.70;99.90;;;;;;5029202;28;20226;-78
2022/11/15 05:46:30;;;;;;;7.03;1.38;;;22.60;99.90;;;;;;5028554;28;20306;-78
2022/11/15 05:49:02;;;;;;;6.97;1.40;;;22.60;99.90;;;;;;5021954;28;20195;-79
2022/11/15 05:51:33;;;;;;;7.93;1.30;;;22.60;99.90;;;;;;5019722;28;20300;-78
2022/11/15 05:54:06;;;;;;;6.22;1.20;;;22.60;99.90;;;;;;5027094;28;20202;-79
2022/11/15 05:56:37;;;;;;;6.97;1.38;;;22.60;99.90;;;;;;5029527;28;20198;-79
2022/11/15 05:59:11;;;;;;;10.15;1.42;;;22.40;99.90;;;;;;5032515;28;20705;-80
2022/11/15 06:01:43;;;;;;;6.88;1.35;;;22.30;99.90;;;;;;5023912;28;20212;-78
2022/11/15 06:04:13;;;;;;;7.50;1.42;;;22.20;99.90;;;;;;5027852;28;20206;-80
2022/11/15 06:06:44;;;;;;;8.27;1.30;;;22.10;99.90;;;;;;5027654;28;20560;-80
2022/11/15 06:09:17;;;;;;;9.63;1.60;;;22.00;99.90;;;;;;5030839;28;20593;-78
2022/11/15 06:11:48;;;;;;;7.07;1.27;;;21.90;99.90;;;;;;5023895;28;20202;-81
2022/11/15 06:14:19;;;;;;;7.78;1.73;;;21.80;99.90;;;;;;5027518;28;20212;-79
2022/11/15 06:16:49;;;;;;;6.30;1.27;;;21.70;99.90;;;;;;5028081;28;20190;-80
2022/11/15 06:19:20;;;;;;;8.75;1.40;;;21.60;99.90;;;;;;5025954;28;20241;-79
2022/11/15 06:21:51;;;;;;;8.73;1.30;;;21.50;99.90;;;;;;5018752;28;20210;-78
2022/11/15 06:24:24;;;;;;;8.32;1.30;;;21.50;99.90;;;;;;5029912;28;20249;-79
2022/11/15 06:26:55;;;;;;;7.28;1.15;;;21.30;99.90;;;;;;5024247;28;20222;-78
2022/11/15 06:29:25;;;;;;;4.85;1.23;;;21.20;99.90;;;;;;5028027;28;20198;-78
2022/11/15 06:31:56;;;;;;;14.98;5.38;;;21.20;99.90;;;;;;5027708;28;20202;-77
2022/11/15 06:34:27;;;;;;;8.38;1.50;;;21.20;99.90;;;;;;5030320;28;20430;-79
2022/11/15 06:36:58;;;;;;;33.20;17.33;;;21.20;99.90;;;;;;5029892;28;20249;-80
2022/11/15 06:39:31;;;;;;;32.55;22.15;;;21.10;99.90;;;;;;5027311;28;20227;-79
2022/11/15 06:42:02;;;;;;;5.72;1.52;;;21.10;99.90;;;;;;5031223;28;20195;-79
2022/11/15 06:44:32;;;;;;;9.38;1.70;;;21.10;99.90;;;;;;5033051;28;20229;-80
2022/11/15 06:47:03;;;;;;;6.80;1.45;;;21.10;99.90;;;;;;5030859;28;20209;-79
2022/11/15 06:49:34;;;;;;;6.80;1.40;;;21.10;99.90;;;;;;5033097;28;20620;-79
2022/11/15 06:52:05;;;;;;;10.68;1.92;;;21.00;99.90;;;;;;5024321;28;20197;-77
2022/11/15 06:54:38;;;;;;;7.72;1.33;;;21.00;99.90;;;;;;5030961;28;20199;-78
2022/11/15 06:57:09;;;;;;;7.25;1.55;;;21.00;99.90;;;;;;5026282;28;20237;-78
2022/11/15 06:59:40;;;;;;;9.20;1.45;;;20.90;99.90;;;;;;5021080;28;20704;-77
2022/11/15 07:02:15;;;;;;;8.48;1.40;;;20.80;99.90;;;;;;5027225;28;20190;-78
2022/11/15 07:04:46;;;;;;;11.85;2.10;;;20.80;99.90;;;;;;5029145;28;20200;-77
2022/11/15 07:07:17;;;;;;;7.22;1.42;;;20.70;99.90;;;;;;5028679;28;20198;-77
2022/11/15 07:09:49;;;;;;;9.23;1.25;;;20.70;99.90;;;;;;5031057;28;20209;-79
2022/11/15 07:12:20;;;;;;;8.15;1.70;;;20.60;99.90;;;;;;5028972;28;20202;-80
2022/11/15 07:14:51;;;;;;;8.82;1.52;;;20.60;99.90;;;;;;5023332;28;20213;-78
2022/11/15 07:17:22;;;;;;;12.07;1.77;;;20.50;99.90;;;;;;5031351;28;20194;-78
2022/11/15 07:19:52;;;;;;;9.85;1.50;;;20.40;99.90;;;;;;5027447;28;20221;-78
2022/11/15 07:22:23;;;;;;;10.98;1.83;;;20.40;99.90;;;;;;5022304;28;20198;-79
2022/11/15 07:24:56;;;;;;;8.88;1.70;;;20.40;99.90;;;;;;5023571;28;20200;-77
2022/11/15 07:27:27;;;;;;;11.18;1.50;;;20.30;99.90;;;;;;5029309;28;20194;-77
2022/11/15 07:29:57;;;;;;;9.63;1.90;;;20.30;99.90;;;;;;5033293;28;20198;-78
2022/11/15 07:32:28;;;;;;;10.15;1.88;;;20.30;99.90;;;;;;5028233;28;20213;-76
2022/11/15 07:34:59;;;;;;;7.88;1.67;;;20.20;99.90;;;;;;5025727;28;20657;-77
2022/11/15 07:37:30;;;;;;;7.97;1.75;;;20.10;99.90;;;;;;5024297;28;20238;-79
2022/11/15 07:40:03;;;;;;;13.23;2.30;;;20.00;99.90;;;;;;5025293;28;20304;-79
2022/11/15 07:45:22;;;;;;;11.27;1.88;;;19.70;99.90;;;;;;5025526;28;20197;-79
2022/11/15 07:47:52;;;;;;;7.50;1.63;;;19.60;99.90;;;;;;5024790;28;20203;-78
2022/11/15 07:50:23;;;;;;;7.30;1.80;;;19.50;99.90;;;;;;5031102;28;20198;-78
2022/11/15 07:52:58;;;;;;;9.43;1.85;;;19.50;99.90;;;;;;5024309;28;20194;-78
2022/11/15 07:55:31;;;;;;;9.27;1.95;;;19.40;99.90;;;;;;5030113;28;20197;-79
2022/11/15 07:58:06;;;;;;;14.85;2.20;;;19.40;99.90;;;;;;5029027;28;20205;-79
2022/11/15 08:00:37;;;;;;;10.57;2.47;;;19.30;99.90;;;;;;5026085;28;20277;-79
2022/11/15 08:03:09;;;;;;;10.35;1.85;;;19.30;99.90;;;;;;5027796;28;20200;-79
2022/11/15 08:05:41;;;;;;;9.48;1.73;;;19.30;99.90;;;;;;5030723;28;20198;-79
2022/11/15 08:08:13;;;;;;;12.13;1.83;;;19.30;99.90;;;;;;5030550;28;20688;-78
2022/11/15 08:10:45;;;;;;;11.52;1.45;;;19.20;99.90;;;;;;5024112;28;20203;-79
2022/11/15 08:13:17;;;;;;;9.57;1.58;;;19.20;99.90;;;;;;5024119;28;20464;-79
2022/11/15 08:15:47;;;;;;;9.73;2.08;;;19.10;99.90;;;;;;5024730;28;20554;-79
2022/11/15 08:18:19;;;;;;;11.25;1.52;;;19.10;99.90;;;;;;5025971;28;20205;-78
2022/11/15 08:20:50;;;;;;;7.45;1.50;;;19.10;99.90;;;;;;5023780;28;20686;-78
2022/11/15 08:23:21;;;;;;;7.82;1.65;;;19.00;99.90;;;;;;5029976;28;20285;-78
2022/11/15 08:25:54;;;;;;;7.70;1.50;;;19.00;99.90;;;;;;5031199;28;20247;-78
2022/11/15 08:28:25;;;;;;;9.75;1.85;;;18.90;99.90;;;;;;5031528;28;20290;-79
2022/11/15 08:30:55;;;;;;;7.80;1.58;;;18.90;99.90;;;;;;5028148;28;20232;-79
2022/11/15 08:33:26;;;;;;;11.95;1.80;;;18.90;99.90;;;;;;5027814;28;20194;-79
2022/11/15 08:36:00;;;;;;;12.63;1.80;;;18.80;99.90;;;;;;5029242;28;20205;-79
2022/11/15 08:38:31;;;;;;;7.90;1.60;;;18.80;99.90;;;;;;5027703;28;20240;-79
2022/11/15 08:41:08;;;;;;;9.48;1.33;;;18.80;99.90;;;;;;5027650;28;20199;-79
2022/11/15 08:43:39;;;;;;;10.60;1.65;;;18.80;99.90;;;;;;5029553;28;20305;-79
2022/11/15 08:46:11;;;;;;;7.05;1.73;;;18.80;99.90;;;;;;5028549;28;20733;-79
2022/11/15 08:48:42;;;;;;;11.18;2.08;;;18.70;99.90;;;;;;5027848;28;20195;-78
2022/11/15 08:51:13;;;;;;;6.95;1.70;;;18.70;99.90;;;;;;5018138;28;20203;-79
2022/11/15 08:53:44;;;;;;;9.35;2.25;;;18.70;99.90;;;;;;5025066;28;20650;-78
2022/11/15 08:56:18;;;;;;;9.10;1.63;;;18.70;99.90;;;;;;5024601;28;20202;-78
2022/11/15 08:58:48;;;;;;;9.50;1.80;;;18.70;99.90;;;;;;5025582;28;20224;-78
2022/11/15 09:01:21;;;;;;;7.22;1.75;;;18.70;99.90;;;;;;5029578;28;20198;-78
2022/11/15 09:03:53;;;;;;;7.10;1.63;;;18.70;99.90;;;;;;5024525;28;20206;-78
2022/11/15 09:06:24;;;;;;;9.38;1.50;;;18.70;99.90;;;;;;5030603;28;20205;-79
2022/11/15 09:08:55;;;;;;;6.47;1.45;;;18.60;99.90;;;;;;5030104;28;20195;-79
2022/11/15 09:11:28;;;;;;;8.43;1.63;;;18.60;99.90;;;;;;5028898;28;20202;-79
2022/11/15 09:13:59;;;;;;;9.18;1.83;;;18.60;99.90;;;;;;5034819;28;20597;-78
2022/11/15 09:16:29;;;;;;;11.25;1.90;;;18.60;99.90;;;;;;5033396;28;20294;-77
2022/11/15 09:19:01;;;;;;;10.18;1.60;;;18.50;99.90;;;;;;5030320;28;20200;-78
2022/11/15 09:21:33;;;;;;;7.65;1.40;;;18.50;99.90;;;;;;5028937;28;20206;-78
2022/11/15 09:24:04;;;;;;;8.57;1.70;;;18.50;99.90;;;;;;5021143;28;20597;-78
2022/11/15 09:26:37;;;;;;;8.75;1.60;;;18.50;99.90;;;;;;5025707;28;20195;-78
2022/11/15 09:29:09;;;;;;;11.73;1.90;;;18.50;99.90;;;;;;5028677;28;20272;-78
2022/11/15 09:31:39;;;;;;;8.23;1.50;;;18.50;99.90;;;;;;5028776;28;20202;-78
2022/11/15 09:34:11;;;;;;;11.07;1.88;;;18.60;99.90;;;;;;5026541;28;20190;-78
2022/11/15 09:36:42;;;;;;;6.20;1.40;;;18.60;99.90;;;;;;5032380;28;20230;-77
2022/11/15 09:39:13;;;;;;;7.53;1.50;;;18.60;99.90;;;;;;5026934;28;20225;-77
2022/11/15 09:42:03;;;;;;;6.45;1.23;;;18.60;99.90;;;;;;5027234;28;20269;-78
2022/11/15 09:44:46;;;;;;;6.53;1.35;;;18.70;99.90;;;;;;5025243;28;20225;-78
2022/11/15 09:47:44;;;;;;;8.68;1.30;;;18.70;99.90;;;;;;5028160;28;20661;-78
2022/11/15 09:50:18;;;;;;;7.57;1.10;;;18.70;99.90;;;;;;5025670;28;20642;-78
2022/11/15 09:52:51;;;;;;;9.52;1.88;;;18.70;99.90;;;;;;5024660;28;20198;-77
2022/11/15 09:55:23;;;;;;;8.98;1.25;;;18.70;99.90;;;;;;5025138;28;20290;-78
2022/11/15 09:58:01;;;;;;;8.50;1.40;;;18.70;99.90;;;;;;5025064;28;20650;-80
2022/11/15 10:00:37;;;;;;;7.45;1.20;;;18.70;99.90;;;;;;5024483;28;20622;-78
2022/11/15 10:03:41;;;;;;;5.85;1.20;;;18.60;99.90;;;;;;5025797;28;20194;-78
2022/11/15 10:06:24;;;;;;;12.00;1.42;;;18.60;99.90;;;;;;5028597;28;20236;-78
2022/11/15 10:09:00;;;;;;;9.40;1.58;;;18.60;99.90;;;;;;5028917;28;20198;-78
2022/11/15 10:11:34;;;;;;;9.73;1.60;;;18.60;99.90;;;;;;5030371;28;20201;-78
2022/11/15 10:14:13;;;;;;;10.18;1.50;;;18.60;99.90;;;;;;5029770;28;20273;-79
2022/11/15 10:17:27;;;;;;;5.97;1.20;;;18.60;99.90;;;;;;5032473;28;20281;-79
2022/11/15 10:20:11;;;;;;;7.55;1.25;;;18.60;99.90;;;;;;5015353;28;20222;-78
2022/11/15 10:22:49;;;;;;;6.55;1.70;;;18.60;99.90;;;;;;5030492;28;20190;-78
2022/11/15 10:25:25;;;;;;;10.25;1.63;;;18.50;99.90;;;;;;5032095;28;20573;-78
2022/11/15 10:28:05;;;;;;;7.28;1.70;;;18.50;99.90;;;;;;5029419;28;20608;-78
2022/11/15 10:30:45;;;;;;;7.57;1.55;;;18.50;99.90;;;;;;5025501;28;20260;-78
2022/11/15 10:33:28;;;;;;;6.65;1.50;;;18.50;99.90;;;;;;5031688;28;20672;-78
2022/11/15 10:36:21;;;;;;;5.18;1.20;;;18.50;99.90;;;;;;5025311;28;20200;-77
2022/11/15 10:39:01;;;;;;;6.90;1.60;;;18.40;99.90;;;;;;5027501;28;20567;-77
2022/11/15 10:41:41;;;;;;;9.10;1.88;;;18.40;99.90;;;;;;5027014;28;20213;-77
2022/11/15 10:44:27;;;;;;;5.88;1.55;;;18.40;99.90;;;;;;5027434;28;20230;-77
2022/11/15 10:47:27;;;;;;;9.80;1.40;;;18.40;99.90;;;;;;5026146;28;20206;-78
2022/11/15 10:50:08;;;;;;;7.88;1.25;;;18.30;99.90;;;;;;5027711;28;20661;-77
2022/11/15 10:52:47;;;;;;;3.80;1.00;;;18.30;99.90;;;;;;5031989;28;20202;-77
2022/11/15 10:55:30;;;;;;;7.57;1.40;;;18.30;99.90;;;;;;5032054;28;20201;-78
2022/11/15 10:58:09;;;;;;;10.02;1.60;;;18.30;99.90;;;;;;5025425;28;20194;-77
2022/11/15 11:00:42;;;;;;;8.60;1.48;;;18.30;99.90;;;;;;5029537;28;20264;-77
2022/11/15 11:03:35;;;;;;;5.10;1.27;;;18.30;99.90;;;;;;5032748;28;20222;-77
2022/11/15 11:06:16;;;;;;;4.20;1.10;;;18.30;99.90;;;;;;5032516;28;20198;-78
2022/11/15 11:08:59;;;;;;;7.63;1.30;;;18.20;99.90;;;;;;5028594;28;20277;-77
2022/11/15 11:11:48;;;;;;;6.47;1.10;;;18.20;99.90;;;;;;5029720;28;20210;-77
2022/11/15 11:14:26;;;;;;;7.70;1.52;;;18.10;99.90;;;;;;5030378;28;20281;-78
2022/11/15 11:17:03;;;;;;;3.83;1.30;;;18.00;99.90;;;;;;5024799;28;20202;-78
2022/11/15 11:19:52;;;;;;;3.50;0.82;;;18.00;99.90;;;;;;5032843;28;20269;-78
2022/11/15 11:22:29;;;;;;;5.10;1.13;;;17.90;99.90;;;;;;5031152;28;20288;-78
2022/11/15 11:25:24;;;;;;;4.85;0.75;;;17.80;99.90;;;;;;5028213;28;20204;-78
2022/11/15 11:28:21;;;;;;;5.68;0.95;;;17.80;99.90;;;;;;5025759;28;20194;-78
2022/11/15 11:31:06;;;;;;;3.53;0.77;;;17.70;99.90;;;;;;5025249;28;20198;-78
2022/11/15 11:33:43;;;;;;;2.72;0.70;;;17.60;99.90;;;;;;5029141;28;20201;-78
2022/11/15 11:36:29;;;;;;;2.25;0.60;;;17.60;99.90;;;;;;5029213;28;20193;-77
2022/11/15 11:39:13;;;;;;;2.85;0.65;;;17.60;99.90;;;;;;5024840;28;20244;-78
2022/11/15 11:41:54;;;;;;;2.28;0.60;;;17.50;99.90;;;;;;5026522;28;20218;-78
2022/11/15 11:44:53;;;;;;;4.55;0.65;;;17.50;99.90;;;;;;5028999;28;20218;-78
2022/11/15 11:47:26;;;;;;;2.65;0.65;;;17.50;99.90;;;;;;5025968;28;20210;-78
2022/11/15 11:50:02;;;;;;;1.98;0.60;;;17.50;99.90;;;;;;5026784;28;20688;-78
2022/11/15 11:52:59;;;;;;;2.30;0.50;;;17.50;99.90;;;;;;5028345;28;20571;-78
2022/11/15 11:55:42;;;;;;;1.02;0.43;;;17.40;99.90;;;;;;5027382;28;20285;-77
2022/11/15 11:58:22;;;;;;;3.35;0.52;;;17.50;99.90;;;;;;5029961;28;20649;-78
2022/11/15 12:01:07;;;;;;;;;;;;;;;;;;;;;
2022/11/15 12:03:45;;;;;;;1.02;0.52;;;17.30;99.90;;;;;;5024316;28;20224;-77
2022/11/15 12:06:32;;;;;;;2.88;0.65;;;17.30;99.90;;;;;;5030242;28;20228;-77
2022/11/15 12:09:14;;;;;;;3.85;0.50;;;17.30;99.90;;;;;;5029866;28;20650;-77
2022/11/15 12:11:54;;;;;;;3.75;0.65;;;17.30;99.90;;;;;;5029966;28;20692;-78
2022/11/15 12:14:33;;;;;;;1.10;0.40;;;17.30;99.90;;;;;;5028559;28;20284;-77
2022/11/15 12:17:04;;;;;;;1.08;0.50;;;17.20;99.90;;;;;;5029689;28;20194;-78
2022/11/15 12:19:40;;;;;;;2.25;0.60;;;17.20;99.90;;;;;;5028653;28;20645;-78
2022/11/15 12:22:24;;;;;;;2.08;0.60;;;17.20;99.90;;;;;;5027245;28;20202;-77
2022/11/15 12:25:05;;;;;;;1.27;0.40;;;17.20;99.90;;;;;;5028080;28;20550;-77
2022/11/15 12:27:46;;;;;;;2.00;0.60;;;17.10;99.90;;;;;;5029287;28;20194;-77
2022/11/15 12:30:28;;;;;;;1.27;0.40;;;17.10;99.90;;;;;;5030380;28;20252;-78
2022/11/15 12:33:03;;;;;;;1.25;0.30;;;17.10;99.90;;;;;;5029035;28;20186;-78
2022/11/15 12:35:40;;;;;;;2.63;0.45;;;17.00;99.90;;;;;;5032260;28;20194;-78
2022/11/15 12:38:14;;;;;;;0.70;0.40;;;17.00;99.90;;;;;;5033995;28;20257;-77
2022/11/15 12:41:19;;;;;;;2.00;0.55;;;17.00;99.90;;;;;;5032106;28;20222;-78
2022/11/15 12:43:51;;;;;;;0.77;0.38;;;17.00;99.90;;;;;;5026109;28;20226;-78
2022/11/15 12:46:42;;;;;;;1.48;0.43;;;17.00;99.90;;;;;;5026788;28;20209;-78
2022/11/15 12:49:39;;;;;;;1.80;0.50;;;16.90;99.90;;;;;;5026475;28;20206;-77
2022/11/15 12:52:12;;;;;;;1.48;0.50;;;16.90;99.90;;;;;;5028402;28;20198;-78
2022/11/15 12:55:02;;;;;;;2.65;0.40;;;16.90;99.90;;;;;;5029973;28;20199;-77
2022/11/15 12:57:41;;;;;;;2.05;0.50;;;16.90;99.90;;;;;;5026463;28;20234;-78
2022/11/15 13:00:49;;;;;;;1.50;0.50;;;16.80;99.90;;;;;;5025428;28;20256;-78
2022/11/15 13:03:29;;;;;;;1.00;0.43;;;16.80;99.90;;;;;;5032974;28;20303;-78
2022/11/15 13:06:28;;;;;;;1.45;0.57;;;16.70;99.90;;;;;;5031438;28;20568;-78
2022/11/15 13:08:58;;;;;;;2.50;0.60;;;16.70;99.90;;;;;;5032121;28;20198;-78
2022/11/15 13:11:53;;;;;;;2.08;0.52;;;16.70;99.90;;;;;;5028029;28;20202;-78
2022/11/15 13:14:44;;;;;;;2.63;0.95;;;16.60;99.90;;;;;;5032902;28;20199;-78
2022/11/15 13:17:33;;;;;;;2.95;0.57;;;16.60;99.90;;;;;;5030982;28;20198;-78
2022/11/15 13:20:31;;;;;;;1.35;0.50;;;16.50;99.90;;;;;;5033086;28;20673;-78
2022/11/15 13:23:11;;;;;;;2.45;0.40;;;16.50;99.90;;;;;;5031250;28;20195;-78
2022/11/15 13:26:10;;;;;;;2.90;0.50;;;16.40;99.90;;;;;;5032021;28;20729;-78
2022/11/15 13:28:45;;;;;;;2.22;0.40;;;16.40;99.90;;;;;;5025942;28;20202;-78
2022/11/15 13:31:43;;;;;;;2.55;0.80;;;16.40;99.90;;;;;;5034365;28;20193;-78
2022/11/15 13:34:27;;;;;;;1.63;0.40;;;16.30;99.90;;;;;;5031767;28;20710;-77
2022/11/15 13:36:59;;;;;;;1.73;0.38;;;16.30;99.90;;;;;;5029932;28;20284;-77
2022/11/15 13:39:33;;;;;;;1.17;0.50;;;16.30;99.90;;;;;;5031818;28;20229;-78
2022/11/15 13:42:04;;;;;;;0.88;0.43;;;16.20;99.90;;;;;;5031991;28;20685;-77
2022/11/15 13:44:36;;;;;;;1.33;0.45;;;16.20;99.90;;;;;;5031916;28;20214;-78